createdAt,value
2023-01-08T00:01:59.484Z,28.98
2023-01-08T00:04:26.886Z,16.33
2023-01-08T00:06:55.516Z,18.27
2023-01-08T00:09:23.485Z,12.90
2023-01-08T00:11:51.401Z,9.55
2023-01-08T00:14:38.137Z,7.82
2023-01-08T00:19:42.900Z,9.43
2023-01-08T00:22:10.656Z,9.00
2023-01-08T00:24:37.986Z,7.30
2023-01-08T00:27:05.188Z,7.18
2023-01-08T00:29:32.570Z,11.18
2023-01-08T00:31:59.780Z,6.75
2023-01-08T00:34:27.065Z,6.60
2023-01-08T00:36:54.250Z,7.28
2023-01-08T00:39:21.718Z,7.47
2023-01-08T00:41:49.913Z,8.27
2023-01-08T00:44:17.064Z,5.03
2023-01-08T00:46:44.225Z,13.52
2023-01-08T00:49:11.345Z,10.98
2023-01-08T00:51:38.540Z,15.35
2023-01-08T00:54:06.191Z,13.75
2023-01-08T00:59:00.674Z,13.07
2023-01-08T01:01:30.810Z,10.18
2023-01-08T01:03:58.429Z,17.25
2023-01-08T01:08:52.978Z,14.75
2023-01-08T01:11:24.676Z,10.52
2023-01-08T01:13:54.256Z,12.05
2023-01-08T01:16:22.345Z,11.38
2023-01-08T01:18:49.683Z,12.90
2023-01-08T01:21:30.444Z,10.18
2023-01-08T01:24:02.668Z,12.75
2023-01-08T01:26:31.296Z,13.63
2023-01-08T01:29:00.088Z,17.48
2023-01-08T01:31:31.285Z,12.40
2023-01-08T01:33:59.289Z,15.27
2023-01-08T01:36:27.459Z,13.75
2023-01-08T01:38:58.036Z,13.88
2023-01-08T01:41:30.050Z,12.07
2023-01-08T01:44:01.382Z,15.52
2023-01-08T01:46:40.224Z,18.05
2023-01-08T01:49:15.929Z,13.02
2023-01-08T01:51:52.910Z,15.40
2023-01-08T01:54:20.816Z,15.77
2023-01-08T01:56:48.641Z,13.30
2023-01-08T01:59:16.757Z,15.88
2023-01-08T02:01:48.505Z,13.15
2023-01-08T02:04:16.826Z,12.20
2023-01-08T02:07:04.184Z,11.90
2023-01-08T02:09:51.889Z,12.30
2023-01-08T02:12:56.882Z,11.80
2023-01-08T02:15:47.541Z,10.25
2023-01-08T02:18:33.080Z,14.18
2023-01-08T02:21:39.020Z,10.85
2023-01-08T02:24:19.443Z,11.60
2023-01-08T02:26:48.651Z,12.93
2023-01-08T02:29:26.157Z,11.63
2023-01-08T02:31:53.431Z,12.30
2023-01-08T02:34:20.751Z,13.15
2023-01-08T02:36:54.519Z,14.18
2023-01-08T02:39:45.422Z,13.27
2023-01-08T02:42:49.880Z,11.32
2023-01-08T02:45:43.221Z,10.02
2023-01-08T02:48:22.368Z,11.80
2023-01-08T02:50:55.601Z,13.60
2023-01-08T02:53:35.056Z,12.52
2023-01-08T02:56:13.858Z,12.35
2023-01-08T02:58:43.832Z,13.50
2023-01-08T03:01:16.589Z,13.95
2023-01-08T03:04:00.018Z,13.88
2023-01-08T03:06:29.764Z,12.45
2023-01-08T03:08:59.194Z,13.90
2023-01-08T03:11:38.401Z,13.10
2023-01-08T03:14:23.133Z,10.55
2023-01-08T03:17:30.398Z,10.48
2023-01-08T03:22:34.002Z,11.00
2023-01-08T03:25:06.922Z,12.18
2023-01-08T03:27:45.905Z,9.73
2023-01-08T03:30:19.951Z,12.40
2023-01-08T03:32:50.397Z,9.23
2023-01-08T03:35:26.073Z,9.00
2023-01-08T03:38:05.931Z,9.02
2023-01-08T03:40:46.394Z,9.20
2023-01-08T03:43:20.489Z,9.50
2023-01-08T03:46:01.791Z,11.32
2023-01-08T03:48:35.663Z,12.65
2023-01-08T03:53:30.699Z,11.68
2023-01-08T03:56:00.617Z,11.45
2023-01-08T03:58:29.385Z,22.27
2023-01-08T04:00:56.767Z,10.70
2023-01-08T04:03:27.499Z,11.48
2023-01-08T04:05:55.006Z,11.00
2023-01-08T04:08:23.003Z,9.75
2023-01-08T04:10:54.572Z,9.23
2023-01-08T04:13:22.606Z,7.88
2023-01-08T04:15:53.948Z,9.32
2023-01-08T04:18:28.153Z,10.57
2023-01-08T04:20:55.626Z,10.75
2023-01-08T04:23:27.078Z,9.05
2023-01-08T04:25:54.769Z,8.38
2023-01-08T04:28:27.739Z,11.30
2023-01-08T04:30:55.585Z,11.50
2023-01-08T04:33:27.431Z,10.43
2023-01-08T04:35:54.698Z,9.45
2023-01-08T04:38:21.880Z,13.73
2023-01-08T04:40:48.994Z,11.38
2023-01-08T04:43:16.229Z,26.30
2023-01-08T04:45:43.426Z,11.43
2023-01-08T04:48:14.051Z,10.40
2023-01-08T04:50:42.321Z,10.25
2023-01-08T04:53:13.161Z,12.40
2023-01-08T04:55:40.972Z,11.95
2023-01-08T04:58:19.014Z,12.23
2023-01-08T05:00:47.189Z,10.65
2023-01-08T05:05:49.897Z,8.23
2023-01-08T05:08:17.261Z,8.38
2023-01-08T05:10:44.535Z,10.88
2023-01-08T05:13:11.657Z,7.85
2023-01-08T05:15:38.851Z,10.82
2023-01-08T05:18:06.858Z,9.25
2023-01-08T05:20:34.984Z,9.05
2023-01-08T05:23:02.939Z,7.68
2023-01-08T05:25:30.277Z,9.45
2023-01-08T05:27:57.468Z,12.65
2023-01-08T05:30:24.610Z,10.85
2023-01-08T05:32:51.892Z,9.30
2023-01-08T05:35:19.484Z,9.25
2023-01-08T05:40:13.734Z,9.13
2023-01-08T05:42:41.130Z,9.15
2023-01-08T05:45:08.914Z,11.05
2023-01-08T05:47:36.373Z,8.60
2023-01-08T05:50:04.007Z,8.40
2023-01-08T05:52:31.339Z,9.93
2023-01-08T05:55:00.361Z,12.85
2023-01-08T05:57:27.612Z,10.38
2023-01-08T05:59:55.207Z,14.25
2023-01-08T06:02:24.779Z,13.93
2023-01-08T06:04:51.963Z,12.38
2023-01-08T06:07:19.119Z,13.57
2023-01-08T06:09:46.442Z,12.23
2023-01-08T06:12:13.673Z,13.30
2023-01-08T06:14:40.843Z,12.82
2023-01-08T06:17:07.988Z,11.80
2023-01-08T06:19:35.184Z,14.00
2023-01-08T06:22:02.338Z,12.02
2023-01-08T06:24:29.485Z,13.57
2023-01-08T06:26:56.804Z,14.85
2023-01-08T06:29:24.119Z,13.57
2023-01-08T06:31:51.305Z,13.77
2023-01-08T06:34:18.526Z,12.75
2023-01-08T06:36:45.828Z,14.35
2023-01-08T06:39:13.621Z,15.77
2023-01-08T06:41:40.725Z,15.30
2023-01-08T06:44:08.128Z,17.42
2023-01-08T06:46:40.363Z,16.48
2023-01-08T06:49:08.221Z,13.43
2023-01-08T06:51:36.476Z,15.48
2023-01-08T06:54:03.890Z,18.25
2023-01-08T06:56:31.228Z,17.40
2023-01-08T06:58:58.460Z,14.63
2023-01-08T07:01:26.911Z,13.95
2023-01-08T07:03:54.105Z,14.70
2023-01-08T07:06:23.502Z,17.40
2023-01-08T07:08:50.819Z,16.65
2023-01-08T07:11:18.296Z,17.33
2023-01-08T07:16:15.464Z,14.82
2023-01-08T07:18:43.015Z,12.60
2023-01-08T07:23:38.868Z,15.40
2023-01-08T07:26:08.522Z,17.83
2023-01-08T07:28:35.747Z,20.35
2023-01-08T07:31:07.237Z,20.50
2023-01-08T07:33:36.460Z,18.10
2023-01-08T07:36:05.817Z,16.88
2023-01-08T07:38:33.456Z,19.70
2023-01-08T07:41:00.753Z,18.45
2023-01-08T07:43:30.233Z,20.27
2023-01-08T07:45:58.061Z,17.15
2023-01-08T07:48:25.457Z,17.40
2023-01-08T07:50:52.658Z,17.38
2023-01-08T07:53:20.185Z,18.70
2023-01-08T07:58:15.702Z,19.25
2023-01-08T08:03:13.762Z,23.13
2023-01-08T08:05:41.054Z,19.85
2023-01-08T08:08:13.195Z,19.75
2023-01-08T08:10:42.563Z,22.88
2023-01-08T08:13:11.297Z,25.60
2023-01-08T08:15:41.062Z,21.50
2023-01-08T08:18:08.720Z,27.83
2023-01-08T08:20:36.991Z,22.60
2023-01-08T08:23:10.877Z,27.50
2023-01-08T08:25:38.149Z,25.13
2023-01-08T08:28:05.881Z,24.95
2023-01-08T08:30:35.763Z,18.17
2023-01-08T08:33:06.395Z,17.65
2023-01-08T08:35:34.801Z,23.38
2023-01-08T08:38:02.150Z,22.35
2023-01-08T08:40:29.824Z,20.73
2023-01-08T08:43:04.896Z,19.33
2023-01-08T08:45:32.068Z,19.83
2023-01-08T08:47:59.322Z,18.85
2023-01-08T08:50:26.816Z,20.67
2023-01-08T08:53:02.828Z,19.17
2023-01-08T08:55:32.916Z,22.80
2023-01-08T08:58:11.276Z,18.45
2023-01-08T09:00:41.305Z,16.75
2023-01-08T09:03:15.075Z,18.33
2023-01-08T09:05:43.401Z,16.40
2023-01-08T09:08:12.237Z,15.95
2023-01-08T09:10:42.561Z,17.73
2023-01-08T09:13:11.003Z,13.82
2023-01-08T09:15:39.676Z,13.32
2023-01-08T09:18:07.012Z,13.77
2023-01-08T09:23:03.373Z,11.10
2023-01-08T09:25:31.387Z,9.77
2023-01-08T09:28:06.000Z,10.07
2023-01-08T09:30:34.014Z,10.88
2023-01-08T09:33:04.440Z,14.80
2023-01-08T09:35:34.981Z,17.00
2023-01-08T09:38:02.189Z,11.80
2023-01-08T09:40:42.885Z,10.40
2023-01-08T09:43:20.777Z,10.48
2023-01-08T09:45:59.784Z,9.55
2023-01-08T09:48:40.450Z,10.95
2023-01-08T09:51:17.729Z,11.48
2023-01-08T09:53:46.224Z,8.48
2023-01-08T09:56:18.879Z,9.02
2023-01-08T09:58:50.898Z,7.72
2023-01-08T10:01:44.747Z,7.35
2023-01-08T10:04:22.704Z,8.25
2023-01-08T10:06:56.889Z,9.80
2023-01-08T10:09:31.449Z,9.77
2023-01-08T10:12:06.145Z,9.45
2023-01-08T10:14:37.937Z,8.85
2023-01-08T10:17:37.566Z,9.23
2023-01-08T10:20:23.952Z,13.15
2023-01-08T10:22:54.460Z,10.55
2023-01-08T10:25:28.071Z,10.13
2023-01-08T10:28:02.988Z,8.50
2023-01-08T10:30:40.060Z,10.55
2023-01-08T10:33:41.028Z,7.57
2023-01-08T10:36:14.356Z,8.48
2023-01-08T10:39:00.615Z,9.68
2023-01-08T10:41:28.971Z,9.82
2023-01-08T10:44:02.487Z,9.30
2023-01-08T10:46:47.805Z,15.20
2023-01-08T10:49:42.921Z,8.85
2023-01-08T10:52:36.547Z,9.93
2023-01-08T10:55:29.909Z,11.77
2023-01-08T10:58:02.327Z,10.25
2023-01-08T11:00:34.643Z,9.68
2023-01-08T11:03:08.106Z,10.05
2023-01-08T11:05:39.356Z,10.20
2023-01-08T11:08:22.781Z,10.73
2023-01-08T11:11:00.118Z,9.02
2023-01-08T11:13:29.732Z,13.00
2023-01-08T11:16:04.696Z,12.38
2023-01-08T11:18:43.724Z,12.73
2023-01-08T11:21:45.349Z,13.55
2023-01-08T11:24:18.267Z,14.57
2023-01-08T11:26:54.733Z,14.60
2023-01-08T11:29:30.143Z,15.20
2023-01-08T11:32:41.956Z,21.95
2023-01-08T11:35:28.567Z,12.98
2023-01-08T11:41:16.783Z,15.15
2023-01-08T11:44:07.607Z,15.50
2023-01-08T11:47:14.494Z,21.88
2023-01-08T11:50:14.743Z,16.92
2023-01-08T11:53:09.895Z,17.85
2023-01-08T11:56:46.311Z,21.80
2023-01-08T11:59:30.068Z,22.13
2023-01-08T12:03:06.349Z,22.42
2023-01-08T12:05:43.021Z,20.80
2023-01-08T12:08:55.197Z,19.92
2023-01-08T12:11:32.895Z,21.35
2023-01-08T12:14:48.637Z,16.42
2023-01-08T12:17:47.357Z,13.40
2023-01-08T12:20:37.212Z,15.50
2023-01-08T12:23:39.151Z,14.20
2023-01-08T12:26:19.672Z,16.35
2023-01-08T12:29:07.403Z,13.48
2023-01-08T12:32:10.538Z,11.50
2023-01-08T12:34:54.508Z,10.60
2023-01-08T12:38:00.627Z,10.68
2023-01-08T12:40:59.951Z,9.07
2023-01-08T12:46:20.619Z,10.82
2023-01-08T12:48:52.952Z,9.75
2023-01-08T12:52:01.912Z,7.72
2023-01-08T12:55:10.027Z,8.50
2023-01-08T12:58:20.625Z,5.65
2023-01-08T13:01:21.480Z,4.60
2023-01-08T13:03:49.567Z,5.05
2023-01-08T13:06:20.848Z,4.00
2023-01-08T13:09:06.611Z,5.80
2023-01-08T13:11:38.664Z,4.60
2023-01-08T13:14:14.050Z,4.70
2023-01-08T13:16:46.378Z,3.47
2023-01-08T13:19:50.936Z,5.43
2023-01-08T13:22:37.413Z,6.05
2023-01-08T13:27:57.770Z,3.30
2023-01-08T13:30:38.911Z,5.80
2023-01-08T13:33:48.947Z,4.85
2023-01-08T13:36:28.661Z,3.88
2023-01-08T13:39:11.020Z,5.43
2023-01-08T13:41:56.798Z,5.45
2023-01-08T13:44:29.075Z,5.55
2023-01-08T13:47:04.692Z,7.32
2023-01-08T13:49:54.208Z,6.18
2023-01-08T13:52:45.578Z,6.85
2023-01-08T13:55:22.204Z,4.03
2023-01-08T13:57:55.862Z,5.53
2023-01-08T14:00:43.318Z,5.15
2023-01-08T14:03:35.745Z,3.80
2023-01-08T14:06:28.460Z,4.80
2023-01-08T14:09:02.617Z,4.95
2023-01-08T14:11:44.772Z,5.43
2023-01-08T14:14:20.555Z,4.97
2023-01-08T14:16:53.294Z,6.45
2023-01-08T14:19:25.552Z,3.65
2023-01-08T14:22:01.926Z,5.78
2023-01-08T14:24:29.227Z,7.72
2023-01-08T14:27:00.056Z,5.22
2023-01-08T14:29:30.980Z,4.97
2023-01-08T14:32:01.097Z,7.30
2023-01-08T14:34:32.069Z,5.55
2023-01-08T14:36:59.390Z,4.28
2023-01-08T14:39:38.462Z,5.55
2023-01-08T14:42:43.228Z,5.38
2023-01-08T14:45:22.749Z,8.10
2023-01-08T14:47:54.884Z,5.40
2023-01-08T14:50:34.765Z,4.00
2023-01-08T14:55:57.230Z,4.28
2023-01-08T14:58:29.993Z,5.43
2023-01-08T15:01:06.858Z,3.83
2023-01-08T15:03:42.765Z,3.83
2023-01-08T15:06:11.693Z,4.03
2023-01-08T15:08:42.277Z,2.97
2023-01-08T15:11:31.443Z,1.73
2023-01-08T15:13:59.287Z,4.20
2023-01-08T15:16:38.977Z,2.63
2023-01-08T15:19:22.354Z,3.10
2023-01-08T15:21:52.738Z,4.38
2023-01-08T15:24:39.421Z,3.63
2023-01-08T15:27:10.511Z,4.88
2023-01-08T15:30:00.360Z,3.35
2023-01-08T15:32:37.447Z,5.38
2023-01-08T15:35:18.342Z,4.90
2023-01-08T15:37:46.100Z,3.20
2023-01-08T15:40:13.719Z,3.60
2023-01-08T15:42:59.925Z,3.80
2023-01-08T15:45:32.588Z,4.03
2023-01-08T15:48:00.248Z,4.35
2023-01-08T15:50:29.204Z,6.70
2023-01-08T15:52:57.592Z,3.40
2023-01-08T15:55:26.604Z,3.65
2023-01-08T15:57:56.078Z,4.30
2023-01-08T16:00:24.998Z,3.45
2023-01-08T16:02:54.312Z,5.07
2023-01-08T16:05:24.258Z,4.70
2023-01-08T16:07:51.743Z,4.75
2023-01-08T16:12:47.316Z,7.32
2023-01-08T16:15:16.395Z,4.30
2023-01-08T16:17:44.606Z,4.82
2023-01-08T16:20:13.655Z,5.45
2023-01-08T16:22:41.366Z,5.90
2023-01-08T16:25:09.606Z,8.15
2023-01-08T16:27:38.523Z,4.20
2023-01-08T16:30:10.714Z,8.05
2023-01-08T16:32:38.017Z,5.38
2023-01-08T16:35:05.705Z,4.10
2023-01-08T16:37:32.806Z,4.72
2023-01-08T16:39:59.981Z,6.18
2023-01-08T16:42:27.297Z,8.05
2023-01-08T16:44:54.451Z,6.32
2023-01-08T16:47:21.844Z,6.72
2023-01-08T16:49:50.532Z,7.05
2023-01-08T16:52:19.823Z,6.68
2023-01-08T16:54:49.091Z,5.95
2023-01-08T16:57:16.212Z,5.15
2023-01-08T16:59:43.605Z,9.45
2023-01-08T17:02:11.457Z,6.03
2023-01-08T17:04:38.692Z,6.22
2023-01-08T17:07:06.076Z,9.40
2023-01-08T17:09:33.755Z,9.75
2023-01-08T17:12:01.321Z,6.15
2023-01-08T17:14:28.538Z,8.35
2023-01-08T17:16:55.683Z,5.47
2023-01-08T17:19:23.080Z,5.75
2023-01-08T17:21:51.027Z,6.70
2023-01-08T17:24:18.274Z,8.60
2023-01-08T17:26:45.569Z,9.82
2023-01-08T17:29:12.913Z,9.90
2023-01-08T17:31:40.423Z,10.48
2023-01-08T17:34:13.838Z,13.40
2023-01-08T17:36:41.296Z,10.75
2023-01-08T17:39:08.781Z,11.23
2023-01-08T17:42:09.144Z,8.75
2023-01-08T17:44:36.409Z,7.10
2023-01-08T17:47:03.765Z,7.85
2023-01-08T17:49:31.285Z,7.53
2023-01-08T17:51:58.508Z,9.27
2023-01-08T17:54:25.988Z,7.88
2023-01-08T17:59:21.273Z,8.90
2023-01-08T18:04:16.358Z,6.53
2023-01-08T18:09:12.873Z,11.82
2023-01-08T18:11:42.534Z,51.30
2023-01-08T18:14:15.817Z,17.65
2023-01-08T18:16:46.081Z,13.77
2023-01-08T18:19:15.950Z,21.83
2023-01-08T18:21:48.099Z,36.20
2023-01-08T18:24:16.031Z,18.92
2023-01-08T18:26:43.572Z,10.68
2023-01-08T18:31:38.019Z,11.85
2023-01-08T18:34:05.148Z,11.95
2023-01-08T18:36:32.396Z,9.98
2023-01-08T18:39:00.333Z,24.15
2023-01-08T18:41:47.621Z,29.48
2023-01-08T18:44:15.650Z,14.98
2023-01-08T18:46:43.092Z,27.00
2023-01-08T18:51:37.354Z,13.60
2023-01-08T18:54:05.018Z,8.02
2023-01-08T18:56:36.861Z,6.75
2023-01-08T18:59:07.008Z,8.20
2023-01-08T19:01:35.894Z,9.63
2023-01-08T19:04:03.586Z,8.05
2023-01-08T19:06:31.153Z,10.23
2023-01-08T19:11:27.216Z,10.15
2023-01-08T19:13:58.849Z,12.02
2023-01-08T19:16:26.833Z,10.57
2023-01-08T19:18:54.402Z,12.98
2023-01-08T19:23:49.595Z,11.73
2023-01-08T19:26:17.391Z,12.70
2023-01-08T19:28:45.396Z,9.85
2023-01-08T19:31:17.358Z,10.63
2023-01-08T19:33:46.423Z,11.57
2023-01-08T19:36:16.604Z,10.45
2023-01-08T19:38:45.350Z,11.07
2023-01-08T19:41:34.966Z,13.73
2023-01-08T19:44:03.462Z,10.02
2023-01-08T19:46:31.553Z,9.02
2023-01-08T19:49:01.698Z,7.35
2023-01-08T19:51:31.784Z,8.40
2023-01-08T19:54:01.064Z,8.10
2023-01-08T19:56:29.040Z,9.25
2023-01-08T19:58:59.907Z,9.50
2023-01-08T20:01:28.808Z,11.70
2023-01-08T20:03:56.949Z,10.35
2023-01-08T20:06:27.089Z,9.48
2023-01-08T20:08:59.976Z,8.77
2023-01-08T20:11:28.783Z,9.18
2023-01-08T20:14:01.459Z,10.77
2023-01-08T20:16:29.996Z,14.68
2023-01-08T20:19:03.597Z,7.90
2023-01-08T20:21:33.571Z,7.93
2023-01-08T20:24:07.048Z,10.85
2023-01-08T20:26:36.952Z,9.13
2023-01-08T20:29:05.511Z,7.43
2023-01-08T20:31:34.600Z,10.88
2023-01-08T20:34:05.616Z,5.68
2023-01-08T20:36:34.985Z,6.50
2023-01-08T20:39:11.903Z,11.32
2023-01-08T20:41:39.544Z,8.93
2023-01-08T20:44:07.376Z,10.05
2023-01-08T20:46:37.259Z,12.23
2023-01-08T20:49:10.376Z,10.02
2023-01-08T20:51:46.273Z,12.93
2023-01-08T20:54:18.787Z,14.32
2023-01-08T20:56:46.166Z,9.77
2023-01-08T20:59:13.585Z,11.45
2023-01-08T21:01:41.000Z,9.70
2023-01-08T21:04:10.309Z,13.52
2023-01-08T21:06:38.548Z,11.63
2023-01-08T21:09:10.864Z,11.43
2023-01-08T21:11:40.386Z,9.82
2023-01-08T21:14:08.968Z,13.05
2023-01-08T21:16:38.898Z,8.63
2023-01-08T21:19:06.728Z,9.82
2023-01-08T21:21:40.050Z,9.10
2023-01-08T21:24:12.663Z,11.70
2023-01-08T21:26:40.054Z,9.25
2023-01-08T21:29:09.251Z,11.52
2023-01-08T21:31:38.543Z,11.02
2023-01-08T21:34:09.112Z,10.52
2023-01-08T21:36:37.456Z,10.30
2023-01-08T21:39:05.839Z,11.07
2023-01-08T21:41:52.439Z,8.63
2023-01-08T21:44:41.726Z,13.93
2023-01-08T21:47:13.623Z,12.18
2023-01-08T21:49:44.529Z,11.60
2023-01-08T21:52:31.070Z,9.55
2023-01-08T21:55:05.450Z,9.55
2023-01-08T21:57:43.236Z,20.85
2023-01-08T22:00:13.246Z,9.23
2023-01-08T22:02:40.833Z,10.10
2023-01-08T22:05:08.828Z,10.30
2023-01-08T22:07:48.576Z,13.45
2023-01-08T22:10:18.930Z,11.65
2023-01-08T22:12:46.581Z,10.35
2023-01-08T22:15:14.361Z,10.63
2023-01-08T22:17:41.697Z,9.30
2023-01-08T22:20:10.333Z,11.40
2023-01-08T22:22:38.689Z,10.95
2023-01-08T22:25:07.616Z,14.88
2023-01-08T22:27:34.992Z,13.07
2023-01-08T22:30:02.378Z,9.98
2023-01-08T22:32:29.596Z,14.13
2023-01-08T22:34:59.705Z,10.82
2023-01-08T22:37:27.013Z,13.93
2023-01-08T22:39:54.299Z,12.73
2023-01-08T22:42:24.056Z,11.23
2023-01-08T22:44:51.409Z,11.95
2023-01-08T22:47:18.686Z,13.00
2023-01-08T22:49:47.793Z,8.55
2023-01-08T22:52:16.652Z,8.38
2023-01-08T22:54:44.093Z,8.52
2023-01-08T22:57:11.635Z,8.07
2023-01-08T23:02:06.098Z,11.68
2023-01-08T23:04:33.440Z,10.65
2023-01-08T23:07:00.643Z,9.63
2023-01-08T23:09:27.912Z,10.05
2023-01-08T23:11:55.162Z,13.32
2023-01-08T23:14:22.762Z,8.63
2023-01-08T23:16:50.138Z,7.88
2023-01-08T23:19:17.755Z,8.20
2023-01-08T23:24:14.201Z,8.27
2023-01-08T23:26:42.861Z,8.82
2023-01-08T23:29:10.908Z,8.07
2023-01-08T23:31:38.670Z,11.35
2023-01-08T23:34:07.703Z,7.60
2023-01-08T23:36:35.313Z,9.02
2023-01-08T23:39:03.088Z,7.97
2023-01-08T23:41:33.776Z,6.30
2023-01-08T23:44:15.140Z,7.03
2023-01-08T23:46:42.356Z,7.45
2023-01-08T23:49:10.650Z,8.65
2023-01-08T23:51:38.871Z,11.43
2023-01-08T23:54:06.283Z,13.40
2023-01-08T23:56:33.487Z,11.80
2023-01-08T23:59:01.142Z,7.05
